sensor_id;sensor_type;location;lat;lon;timestamp;pressure;altitude;pressure_sealevel;temperature;humidity
77118;BME280;66072;50.238;19.228;2023-05-20T00:00:54;99415.09;;;10.20;87.78
77118;BME280;66072;50.238;19.228;2023-05-20T00:03:22;99411.83;;;10.21;87.55
77118;BME280;66072;50.238;19.228;2023-05-20T00:05:50;99411.16;;;10.20;87.56
77118;BME280;66072;50.238;19.228;2023-05-20T00:08:18;99407.20;;;10.21;87.53
77118;BME280;66072;50.238;19.228;2023-05-20T00:10:46;99405.02;;;10.20;87.62
77118;BME280;66072;50.238;19.228;2023-05-20T00:13:13;99400.77;;;10.19;87.56
77118;BME280;66072;50.238;19.228;2023-05-20T00:15:41;99395.79;;;10.20;87.59
77118;BME280;66072;50.238;19.228;2023-05-20T00:18:09;99396.77;;;10.21;87.56
77118;BME280;66072;50.238;19.228;2023-05-20T00:20:36;99397.14;;;10.20;87.77
77118;BME280;66072;50.238;19.228;2023-05-20T00:23:04;99394.91;;;10.20;87.80
77118;BME280;66072;50.238;19.228;2023-05-20T00:25:32;99400.20;;;10.21;87.58
77118;BME280;66072;50.238;19.228;2023-05-20T00:28:00;99396.98;;;10.20;87.62
77118;BME280;66072;50.238;19.228;2023-05-20T00:30:28;99395.11;;;10.19;87.35
77118;BME280;66072;50.238;19.228;2023-05-20T00:32:56;99397.52;;;10.18;87.41
77118;BME280;66072;50.238;19.228;2023-05-20T00:35:24;99398.74;;;10.18;87.47
77118;BME280;66072;50.238;19.228;2023-05-20T00:37:51;99401.70;;;10.16;87.45
77118;BME280;66072;50.238;19.228;2023-05-20T00:40:19;99403.94;;;10.16;87.37
77118;BME280;66072;50.238;19.228;2023-05-20T00:42:47;99403.44;;;10.15;87.59
77118;BME280;66072;50.238;19.228;2023-05-20T00:45:15;99395.61;;;10.14;87.67
77118;BME280;66072;50.238;19.228;2023-05-20T00:47:43;99393.77;;;10.13;87.52
77118;BME280;66072;50.238;19.228;2023-05-20T00:50:10;99391.41;;;10.11;87.47
77118;BME280;66072;50.238;19.228;2023-05-20T00:52:38;99383.13;;;10.08;87.62
77118;BME280;66072;50.238;19.228;2023-05-20T00:55:07;99383.88;;;10.06;87.59
77118;BME280;66072;50.238;19.228;2023-05-20T00:57:35;99383.03;;;10.06;87.54
77118;BME280;66072;50.238;19.228;2023-05-20T01:00:04;99379.64;;;10.05;87.69
77118;BME280;66072;50.238;19.228;2023-05-20T01:02:32;99383.29;;;10.03;87.67
77118;BME280;66072;50.238;19.228;2023-05-20T01:05:03;99385.19;;;10.03;87.63
77118;BME280;66072;50.238;19.228;2023-05-20T01:07:31;99383.35;;;10.01;87.67
77118;BME280;66072;50.238;19.228;2023-05-20T01:09:59;99381.48;;;10.01;87.70
77118;BME280;66072;50.238;19.228;2023-05-20T01:12:34;99379.05;;;10.02;87.76
77118;BME280;66072;50.238;19.228;2023-05-20T01:15:11;99380.16;;;10.05;87.61
77118;BME280;66072;50.238;19.228;2023-05-20T01:17:45;99380.01;;;10.04;87.73
77118;BME280;66072;50.238;19.228;2023-05-20T01:20:14;99382.60;;;10.03;87.71
77118;BME280;66072;50.238;19.228;2023-05-20T01:22:48;99384.88;;;10.02;87.56
77118;BME280;66072;50.238;19.228;2023-05-20T01:25:16;99385.25;;;10.00;87.65
77118;BME280;66072;50.238;19.228;2023-05-20T01:27:44;99380.66;;;9.99;87.70
77118;BME280;66072;50.238;19.228;2023-05-20T01:30:12;99376.38;;;9.99;87.62
77118;BME280;66072;50.238;19.228;2023-05-20T01:32:49;99374.67;;;9.99;87.80
77118;BME280;66072;50.238;19.228;2023-05-20T01:35:17;99379.27;;;9.99;87.68
77118;BME280;66072;50.238;19.228;2023-05-20T01:37:46;99380.35;;;9.98;87.85
77118;BME280;66072;50.238;19.228;2023-05-20T01:40:15;99381.02;;;9.99;87.72
77118;BME280;66072;50.238;19.228;2023-05-20T01:42:43;99378.59;;;10.00;87.62
77118;BME280;66072;50.238;19.228;2023-05-20T01:45:11;99370.88;;;10.01;87.66
77118;BME280;66072;50.238;19.228;2023-05-20T01:47:39;99371.85;;;10.03;87.66
77118;BME280;66072;50.238;19.228;2023-05-20T01:50:07;99373.36;;;10.03;87.56
77118;BME280;66072;50.238;19.228;2023-05-20T01:52:35;99371.16;;;10.03;87.79
77118;BME280;66072;50.238;19.228;2023-05-20T01:55:03;99374.79;;;10.02;87.75
77118;BME280;66072;50.238;19.228;2023-05-20T01:57:31;99373.45;;;10.00;87.99
77118;BME280;66072;50.238;19.228;2023-05-20T01:59:58;99372.13;;;9.99;88.19
77118;BME280;66072;50.238;19.228;2023-05-20T02:02:26;99373.23;;;9.97;88.13
77118;BME280;66072;50.238;19.228;2023-05-20T02:04:54;99373.73;;;9.97;88.16
77118;BME280;66072;50.238;19.228;2023-05-20T02:07:21;99371.67;;;9.96;88.30
77118;BME280;66072;50.238;19.228;2023-05-20T02:09:49;99374.10;;;9.96;88.30
77118;BME280;66072;50.238;19.228;2023-05-20T02:12:17;99379.38;;;9.96;88.41
77118;BME280;66072;50.238;19.228;2023-05-20T02:14:46;99382.77;;;9.97;88.40
77118;BME280;66072;50.238;19.228;2023-05-20T02:17:20;99377.94;;;9.99;88.50
77118;BME280;66072;50.238;19.228;2023-05-20T02:19:48;99377.39;;;10.00;88.50
77118;BME280;66072;50.238;19.228;2023-05-20T02:22:16;99378.92;;;10.00;88.64
77118;BME280;66072;50.238;19.228;2023-05-20T02:24:43;99378.21;;;10.01;88.71
77118;BME280;66072;50.238;19.228;2023-05-20T02:27:11;99374.42;;;10.02;88.79
77118;BME280;66072;50.238;19.228;2023-05-20T02:29:39;99373.70;;;10.04;88.72
77118;BME280;66072;50.238;19.228;2023-05-20T02:32:06;99376.77;;;10.04;88.76
77118;BME280;66072;50.238;19.228;2023-05-20T02:34:34;99379.14;;;10.04;88.65
77118;BME280;66072;50.238;19.228;2023-05-20T02:37:02;99381.35;;;10.05;88.74
77118;BME280;66072;50.238;19.228;2023-05-20T02:39:29;99380.79;;;10.06;88.79
77118;BME280;66072;50.238;19.228;2023-05-20T02:41:57;99380.27;;;10.07;88.91
77118;BME280;66072;50.238;19.228;2023-05-20T02:44:25;99378.70;;;10.08;88.98
77118;BME280;66072;50.238;19.228;2023-05-20T02:46:52;99382.61;;;10.09;88.93
77118;BME280;66072;50.238;19.228;2023-05-20T02:49:20;99380.20;;;10.09;88.96
77118;BME280;66072;50.238;19.228;2023-05-20T02:51:48;99384.27;;;10.10;88.95
77118;BME280;66072;50.238;19.228;2023-05-20T02:54:15;99383.89;;;10.11;89.12
77118;BME280;66072;50.238;19.228;2023-05-20T02:56:43;99387.11;;;10.12;89.00
77118;BME280;66072;50.238;19.228;2023-05-20T02:59:11;99387.95;;;10.13;89.05
77118;BME280;66072;50.238;19.228;2023-05-20T03:01:38;99387.42;;;10.14;89.05
77118;BME280;66072;50.238;19.228;2023-05-20T03:04:06;99389.10;;;10.15;89.15
77118;BME280;66072;50.238;19.228;2023-05-20T03:06:34;99387.53;;;10.15;89.15
77118;BME280;66072;50.238;19.228;2023-05-20T03:09:02;99390.39;;;10.17;89.13
77118;BME280;66072;50.238;19.228;2023-05-20T03:11:30;99389.14;;;10.19;89.20
77118;BME280;66072;50.238;19.228;2023-05-20T03:13:57;99388.78;;;10.20;89.23
77118;BME280;66072;50.238;19.228;2023-05-20T03:16:25;99390.44;;;10.21;89.37
77118;BME280;66072;50.238;19.228;2023-05-20T03:18:52;99385.27;;;10.23;89.28
77118;BME280;66072;50.238;19.228;2023-05-20T03:21:20;99387.42;;;10.26;89.18
77118;BME280;66072;50.238;19.228;2023-05-20T03:23:48;99387.34;;;10.29;89.09
77118;BME280;66072;50.238;19.228;2023-05-20T03:26:15;99388.10;;;10.32;89.07
77118;BME280;66072;50.238;19.228;2023-05-20T03:28:43;99388.37;;;10.34;89.07
77118;BME280;66072;50.238;19.228;2023-05-20T03:31:11;99390.83;;;10.38;88.93
77118;BME280;66072;50.238;19.228;2023-05-20T03:33:38;99392.59;;;10.41;88.98
77118;BME280;66072;50.238;19.228;2023-05-20T03:36:06;99395.77;;;10.44;88.88
77118;BME280;66072;50.238;19.228;2023-05-20T03:38:34;99397.88;;;10.47;88.81
77118;BME280;66072;50.238;19.228;2023-05-20T03:41:01;99398.48;;;10.50;88.77
77118;BME280;66072;50.238;19.228;2023-05-20T03:43:29;99396.17;;;10.53;88.71
77118;BME280;66072;50.238;19.228;2023-05-20T03:45:57;99393.70;;;10.56;88.75
77118;BME280;66072;50.238;19.228;2023-05-20T03:48:24;99390.48;;;10.59;88.80
77118;BME280;66072;50.238;19.228;2023-05-20T03:50:53;99392.59;;;10.63;88.64
77118;BME280;66072;50.238;19.228;2023-05-20T03:53:21;99390.98;;;10.66;88.50
77118;BME280;66072;50.238;19.228;2023-05-20T03:55:49;99389.80;;;10.70;88.48
77118;BME280;66072;50.238;19.228;2023-05-20T03:58:16;99390.98;;;10.76;88.37
77118;BME280;66072;50.238;19.228;2023-05-20T04:00:44;99394.60;;;10.81;88.25
77118;BME280;66072;50.238;19.228;2023-05-20T04:03:12;99393.09;;;10.85;88.12
77118;BME280;66072;50.238;19.228;2023-05-20T04:05:40;99396.19;;;10.90;88.07
77118;BME280;66072;50.238;19.228;2023-05-20T04:08:07;99397.77;;;10.94;87.83
77118;BME280;66072;50.238;19.228;2023-05-20T04:10:35;99397.09;;;10.99;87.87
77118;BME280;66072;50.238;19.228;2023-05-20T04:13:03;99399.65;;;11.04;87.74
77118;BME280;66072;50.238;19.228;2023-05-20T04:15:30;99401.02;;;11.09;87.66
77118;BME280;66072;50.238;19.228;2023-05-20T04:18:02;99399.33;;;11.14;87.57
77118;BME280;66072;50.238;19.228;2023-05-20T04:20:30;99399.48;;;11.19;87.41
77118;BME280;66072;50.238;19.228;2023-05-20T04:22:57;99404.08;;;11.24;87.59
77118;BME280;66072;50.238;19.228;2023-05-20T04:25:25;99403.59;;;11.29;87.31
77118;BME280;66072;50.238;19.228;2023-05-20T04:27:53;99404.45;;;11.34;87.28
77118;BME280;66072;50.238;19.228;2023-05-20T04:30:21;99402.04;;;11.39;87.10
77118;BME280;66072;50.238;19.228;2023-05-20T04:32:49;99403.58;;;11.45;86.96
77118;BME280;66072;50.238;19.228;2023-05-20T04:35:17;99405.80;;;11.49;86.79
77118;BME280;66072;50.238;19.228;2023-05-20T04:37:46;99406.49;;;11.54;86.71
77118;BME280;66072;50.238;19.228;2023-05-20T04:40:14;99404.77;;;11.59;86.63
77118;BME280;66072;50.238;19.228;2023-05-20T04:42:42;99404.73;;;11.65;86.54
77118;BME280;66072;50.238;19.228;2023-05-20T04:45:10;99400.57;;;11.71;86.42
77118;BME280;66072;50.238;19.228;2023-05-20T04:47:38;99402.23;;;11.78;86.36
77118;BME280;66072;50.238;19.228;2023-05-20T04:50:07;99400.95;;;11.85;86.26
77118;BME280;66072;50.238;19.228;2023-05-20T04:52:38;99400.65;;;11.94;86.02
77118;BME280;66072;50.238;19.228;2023-05-20T04:55:08;99402.46;;;12.04;85.82
77118;BME280;66072;50.238;19.228;2023-05-20T04:57:37;99401.77;;;12.14;85.57
77118;BME280;66072;50.238;19.228;2023-05-20T05:00:05;99397.88;;;12.21;85.38
77118;BME280;66072;50.238;19.228;2023-05-20T05:02:34;99402.55;;;12.29;84.98
77118;BME280;66072;50.238;19.228;2023-05-20T05:05:02;99403.92;;;12.38;84.85
77118;BME280;66072;50.238;19.228;2023-05-20T05:07:30;99405.52;;;12.46;84.48
77118;BME280;66072;50.238;19.228;2023-05-20T05:09:58;99408.58;;;12.55;84.56
77118;BME280;66072;50.238;19.228;2023-05-20T05:12:25;99408.09;;;12.64;84.18
77118;BME280;66072;50.238;19.228;2023-05-20T05:14:53;99407.45;;;12.70;83.90
77118;BME280;66072;50.238;19.228;2023-05-20T05:17:21;99403.84;;;12.79;83.70
77118;BME280;66072;50.238;19.228;2023-05-20T05:19:48;99402.06;;;12.85;83.40
77118;BME280;66072;50.238;19.228;2023-05-20T05:22:16;99404.36;;;12.88;83.19
77118;BME280;66072;50.238;19.228;2023-05-20T05:24:43;99402.96;;;12.84;82.98
77118;BME280;66072;50.238;19.228;2023-05-20T05:27:11;99405.80;;;12.82;82.84
77118;BME280;66072;50.238;19.228;2023-05-20T05:29:39;99406.45;;;12.87;83.05
77118;BME280;66072;50.238;19.228;2023-05-20T05:32:06;99403.26;;;12.90;82.53
77118;BME280;66072;50.238;19.228;2023-05-20T05:34:34;99400.73;;;12.88;81.82
77118;BME280;66072;50.238;19.228;2023-05-20T05:37:02;99403.21;;;12.91;82.05
77118;BME280;66072;50.238;19.228;2023-05-20T05:39:29;99402.78;;;13.01;81.79
77118;BME280;66072;50.238;19.228;2023-05-20T05:41:57;99399.63;;;13.24;81.74
77118;BME280;66072;50.238;19.228;2023-05-20T05:44:25;99400.09;;;13.53;81.18
77118;BME280;66072;50.238;19.228;2023-05-20T05:46:52;99402.75;;;13.86;80.76
77118;BME280;66072;50.238;19.228;2023-05-20T05:49:20;99400.45;;;14.14;79.49
77118;BME280;66072;50.238;19.228;2023-05-20T05:51:49;99401.19;;;14.32;78.87
77118;BME280;66072;50.238;19.228;2023-05-20T05:54:17;99401.42;;;14.41;78.64
77118;BME280;66072;50.238;19.228;2023-05-20T05:56:44;99398.93;;;14.47;78.47
77118;BME280;66072;50.238;19.228;2023-05-20T05:59:12;99397.75;;;14.50;77.71
77118;BME280;66072;50.238;19.228;2023-05-20T06:01:39;99392.20;;;14.51;77.62
77118;BME280;66072;50.238;19.228;2023-05-20T06:04:07;99392.27;;;14.50;77.60
77118;BME280;66072;50.238;19.228;2023-05-20T06:06:35;99389.00;;;14.57;77.07
77118;BME280;66072;50.238;19.228;2023-05-20T06:09:02;99385.14;;;14.62;76.83
77118;BME280;66072;50.238;19.228;2023-05-20T06:11:30;99383.44;;;14.69;76.75
77118;BME280;66072;50.238;19.228;2023-05-20T06:13:58;99386.40;;;14.75;76.43
77118;BME280;66072;50.238;19.228;2023-05-20T06:16:25;99383.69;;;14.78;76.33
77118;BME280;66072;50.238;19.228;2023-05-20T06:18:53;99381.95;;;14.85;76.58
77118;BME280;66072;50.238;19.228;2023-05-20T06:21:22;99379.40;;;14.98;76.06
77118;BME280;66072;50.238;19.228;2023-05-20T06:23:50;99381.53;;;15.18;76.03
77118;BME280;66072;50.238;19.228;2023-05-20T06:26:17;99379.91;;;15.39;75.47
77118;BME280;66072;50.238;19.228;2023-05-20T06:28:45;99377.29;;;15.53;74.59
77118;BME280;66072;50.238;19.228;2023-05-20T06:31:12;99382.98;;;15.70;74.66
77118;BME280;66072;50.238;19.228;2023-05-20T06:33:40;99382.46;;;15.87;74.56
77118;BME280;66072;50.238;19.228;2023-05-20T06:36:07;99382.54;;;15.95;73.24
77118;BME280;66072;50.238;19.228;2023-05-20T06:38:35;99386.71;;;15.91;73.30
77118;BME280;66072;50.238;19.228;2023-05-20T06:41:03;99386.92;;;15.87;73.04
77118;BME280;66072;50.238;19.228;2023-05-20T06:43:31;99390.31;;;15.82;72.75
77118;BME280;66072;50.238;19.228;2023-05-20T06:45:59;99387.67;;;15.83;73.17
77118;BME280;66072;50.238;19.228;2023-05-20T06:48:27;99385.77;;;15.96;73.03
77118;BME280;66072;50.238;19.228;2023-05-20T06:50:54;99379.92;;;16.11;72.92
77118;BME280;66072;50.238;19.228;2023-05-20T06:53:22;99379.50;;;16.25;72.55
77118;BME280;66072;50.238;19.228;2023-05-20T06:55:52;99375.39;;;16.34;71.80
77118;BME280;66072;50.238;19.228;2023-05-20T06:58:20;99379.12;;;16.32;71.63
77118;BME280;66072;50.238;19.228;2023-05-20T07:00:47;99372.10;;;16.37;71.65
77118;BME280;66072;50.238;19.228;2023-05-20T07:03:15;99371.89;;;16.50;71.72
77118;BME280;66072;50.238;19.228;2023-05-20T07:05:43;99369.83;;;16.56;71.41
77118;BME280;66072;50.238;19.228;2023-05-20T07:08:11;99368.57;;;16.60;71.24
77118;BME280;66072;50.238;19.228;2023-05-20T07:10:38;99371.33;;;16.70;71.19
77118;BME280;66072;50.238;19.228;2023-05-20T07:13:06;99367.69;;;16.76;70.82
77118;BME280;66072;50.238;19.228;2023-05-20T07:15:34;99366.02;;;16.87;70.84
77118;BME280;66072;50.238;19.228;2023-05-20T07:18:02;99363.93;;;17.08;70.41
77118;BME280;66072;50.238;19.228;2023-05-20T07:20:29;99360.19;;;17.25;69.63
77118;BME280;66072;50.238;19.228;2023-05-20T07:22:57;99358.65;;;17.42;69.64
77118;BME280;66072;50.238;19.228;2023-05-20T07:25:25;99355.04;;;17.61;68.61
77118;BME280;66072;50.238;19.228;2023-05-20T07:27:52;99349.48;;;17.82;68.25
77118;BME280;66072;50.238;19.228;2023-05-20T07:30:20;99350.02;;;17.95;67.59
77118;BME280;66072;50.238;19.228;2023-05-20T07:32:48;99346.67;;;17.96;67.24
77118;BME280;66072;50.238;19.228;2023-05-20T07:35:15;99347.19;;;18.10;67.77
77118;BME280;66072;50.238;19.228;2023-05-20T07:37:43;99344.01;;;18.30;67.25
77118;BME280;66072;50.238;19.228;2023-05-20T07:40:11;99343.48;;;18.49;66.35
77118;BME280;66072;50.238;19.228;2023-05-20T07:42:39;99340.23;;;18.51;64.99
77118;BME280;66072;50.238;19.228;2023-05-20T07:45:07;99343.56;;;18.53;65.51
77118;BME280;66072;50.238;19.228;2023-05-20T07:47:35;99348.23;;;18.58;64.80
77118;BME280;66072;50.238;19.228;2023-05-20T07:50:03;99352.77;;;18.52;64.67
77118;BME280;66072;50.238;19.228;2023-05-20T07:52:31;99359.58;;;18.44;65.12
77118;BME280;66072;50.238;19.228;2023-05-20T07:55:14;99359.48;;;18.53;65.57
77118;BME280;66072;50.238;19.228;2023-05-20T07:57:42;99362.27;;;18.74;65.18
77118;BME280;66072;50.238;19.228;2023-05-20T08:00:11;99361.33;;;18.99;64.26
77118;BME280;66072;50.238;19.228;2023-05-20T08:02:39;99359.65;;;19.09;63.38
77118;BME280;66072;50.238;19.228;2023-05-20T08:05:07;99357.09;;;19.06;62.90
77118;BME280;66072;50.238;19.228;2023-05-20T08:07:35;99354.10;;;19.17;62.58
77118;BME280;66072;50.238;19.228;2023-05-20T08:10:03;99355.69;;;19.34;62.50
77118;BME280;66072;50.238;19.228;2023-05-20T08:12:30;99351.16;;;19.42;61.43
77118;BME280;66072;50.238;19.228;2023-05-20T08:14:58;99348.02;;;19.42;61.46
77118;BME280;66072;50.238;19.228;2023-05-20T08:17:26;99349.39;;;19.40;61.45
77118;BME280;66072;50.238;19.228;2023-05-20T08:19:53;99348.54;;;19.50;61.66
77118;BME280;66072;50.238;19.228;2023-05-20T08:22:21;99345.13;;;19.62;61.21
77118;BME280;66072;50.238;19.228;2023-05-20T08:24:49;99341.23;;;19.70;61.64
77118;BME280;66072;50.238;19.228;2023-05-20T08:27:16;99338.07;;;19.86;61.20
77118;BME280;66072;50.238;19.228;2023-05-20T08:29:44;99332.85;;;19.98;61.29
77118;BME280;66072;50.238;19.228;2023-05-20T08:32:11;99332.23;;;19.99;60.36
77118;BME280;66072;50.238;19.228;2023-05-20T08:34:39;99330.28;;;20.07;60.51
77118;BME280;66072;50.238;19.228;2023-05-20T08:37:07;99328.92;;;20.14;59.86
77118;BME280;66072;50.238;19.228;2023-05-20T08:39:34;99326.63;;;20.10;60.21
77118;BME280;66072;50.238;19.228;2023-05-20T08:42:02;99326.54;;;20.18;60.60
77118;BME280;66072;50.238;19.228;2023-05-20T08:44:30;99321.36;;;20.37;60.21
77118;BME280;66072;50.238;19.228;2023-05-20T08:46:58;99319.41;;;20.66;60.02
77118;BME280;66072;50.238;19.228;2023-05-20T08:49:26;99323.04;;;20.94;59.59
77118;BME280;66072;50.238;19.228;2023-05-20T08:51:53;99323.06;;;20.99;58.24
77118;BME280;66072;50.238;19.228;2023-05-20T08:54:23;99322.36;;;20.91;57.87
77118;BME280;66072;50.238;19.228;2023-05-20T08:56:51;99324.52;;;20.90;58.78
77118;BME280;66072;50.238;19.228;2023-05-20T08:59:19;99325.27;;;20.85;58.63
77118;BME280;66072;50.238;19.228;2023-05-20T09:01:47;99328.11;;;20.80;59.11
77118;BME280;66072;50.238;19.228;2023-05-20T09:04:15;99325.98;;;20.78;58.62
77118;BME280;66072;50.238;19.228;2023-05-20T09:06:46;99324.01;;;20.75;58.64
77118;BME280;66072;50.238;19.228;2023-05-20T09:09:14;99325.08;;;20.69;58.79
77118;BME280;66072;50.238;19.228;2023-05-20T09:11:42;99321.88;;;20.72;58.67
77118;BME280;66072;50.238;19.228;2023-05-20T09:14:09;99325.16;;;20.78;58.33
77118;BME280;66072;50.238;19.228;2023-05-20T09:16:39;99328.13;;;20.91;57.86
77118;BME280;66072;50.238;19.228;2023-05-20T09:19:06;99332.39;;;21.04;58.02
77118;BME280;66072;50.238;19.228;2023-05-20T09:21:34;99333.60;;;21.04;57.51
77118;BME280;66072;50.238;19.228;2023-05-20T09:24:02;99335.72;;;21.15;57.73
77118;BME280;66072;50.238;19.228;2023-05-20T09:26:29;99341.33;;;21.12;57.33
77118;BME280;66072;50.238;19.228;2023-05-20T09:28:58;99337.54;;;21.03;57.33
77118;BME280;66072;50.238;19.228;2023-05-20T09:31:32;99342.77;;;21.21;57.08
77118;BME280;66072;50.238;19.228;2023-05-20T09:34:01;99335.38;;;21.60;56.83
77118;BME280;66072;50.238;19.228;2023-05-20T09:36:29;99330.18;;;21.97;55.73
77118;BME280;66072;50.238;19.228;2023-05-20T09:39:02;99323.71;;;22.26;54.06
77118;BME280;66072;50.238;19.228;2023-05-20T09:41:34;99321.83;;;22.41;54.33
77118;BME280;66072;50.238;19.228;2023-05-20T09:44:04;99323.13;;;22.59;54.02
77118;BME280;66072;50.238;19.228;2023-05-20T09:46:33;99324.36;;;22.92;53.69
77118;BME280;66072;50.238;19.228;2023-05-20T09:49:01;99327.16;;;23.07;52.00
77118;BME280;66072;50.238;19.228;2023-05-20T09:51:29;99326.52;;;23.13;53.09
77118;BME280;66072;50.238;19.228;2023-05-20T09:53:57;99324.30;;;23.30;52.77
77118;BME280;66072;50.238;19.228;2023-05-20T09:56:26;99327.89;;;23.38;51.89
77118;BME280;66072;50.238;19.228;2023-05-20T09:58:56;99325.34;;;23.39;51.42
77118;BME280;66072;50.238;19.228;2023-05-20T10:01:25;99323.78;;;23.39;51.12
77118;BME280;66072;50.238;19.228;2023-05-20T10:03:52;99323.99;;;23.40;51.07
77118;BME280;66072;50.238;19.228;2023-05-20T10:09:44;99324.97;;;23.76;50.85
77118;BME280;66072;50.238;19.228;2023-05-20T10:12:31;99327.00;;;23.94;50.44
77118;BME280;66072;50.238;19.228;2023-05-20T10:18:08;99328.81;;;23.78;50.05
77118;BME280;66072;50.238;19.228;2023-05-20T10:20:48;99329.04;;;23.55;49.86
77118;BME280;66072;50.238;19.228;2023-05-20T10:23:29;99326.13;;;23.42;50.14
77118;BME280;66072;50.238;19.228;2023-05-20T10:25:57;99324.89;;;23.32;51.26
77118;BME280;66072;50.238;19.228;2023-05-20T10:28:30;99321.21;;;23.36;51.54
77118;BME280;66072;50.238;19.228;2023-05-20T10:30:58;99322.94;;;23.54;50.76
77118;BME280;66072;50.238;19.228;2023-05-20T10:33:29;99317.36;;;23.83;50.25
77118;BME280;66072;50.238;19.228;2023-05-20T10:35:57;99312.05;;;24.21;49.74
77118;BME280;66072;50.238;19.228;2023-05-20T10:38:26;99310.86;;;24.50;49.04
77118;BME280;66072;50.238;19.228;2023-05-20T10:40:53;99312.06;;;24.90;48.25
77118;BME280;66072;50.238;19.228;2023-05-20T10:43:27;99310.50;;;25.03;47.69
77118;BME280;66072;50.238;19.228;2023-05-20T10:45:56;99309.25;;;24.96;47.34
77118;BME280;66072;50.238;19.228;2023-05-20T10:48:27;99304.21;;;24.99;47.37
77118;BME280;66072;50.238;19.228;2023-05-20T10:51:00;99299.80;;;25.07;47.20
77118;BME280;66072;50.238;19.228;2023-05-20T10:53:40;99295.66;;;25.35;46.65
77118;BME280;66072;50.238;19.228;2023-05-20T10:56:23;99298.89;;;25.36;47.19
77118;BME280;66072;50.238;19.228;2023-05-20T10:58:53;99298.38;;;25.50;47.22
77118;BME280;66072;50.238;19.228;2023-05-20T11:01:23;99297.75;;;25.94;46.69
77118;BME280;66072;50.238;19.228;2023-05-20T11:03:54;99293.17;;;25.92;45.35
77118;BME280;66072;50.238;19.228;2023-05-20T11:06:27;99295.80;;;25.87;44.97
77118;BME280;66072;50.238;19.228;2023-05-20T11:09:03;99297.63;;;26.11;44.68
77118;BME280;66072;50.238;19.228;2023-05-20T11:11:34;99293.73;;;26.20;44.86
77118;BME280;66072;50.238;19.228;2023-05-20T11:14:01;99282.55;;;26.27;45.38
77118;BME280;66072;50.238;19.228;2023-05-20T11:16:31;99276.82;;;26.19;45.63
77118;BME280;66072;50.238;19.228;2023-05-20T11:18:59;99273.80;;;26.06;44.92
77118;BME280;66072;50.238;19.228;2023-05-20T11:21:26;99270.61;;;26.20;44.32
77118;BME280;66072;50.238;19.228;2023-05-20T11:23:54;99267.33;;;26.79;43.77
77118;BME280;66072;50.238;19.228;2023-05-20T11:26:21;99261.04;;;28.01;41.58
77118;BME280;66072;50.238;19.228;2023-05-20T11:28:49;99258.84;;;28.39;41.24
77118;BME280;66072;50.238;19.228;2023-05-20T11:31:17;99246.87;;;28.17;41.48
77118;BME280;66072;50.238;19.228;2023-05-20T11:33:45;99248.91;;;28.39;41.01
77118;BME280;66072;50.238;19.228;2023-05-20T11:36:14;99249.88;;;28.64;40.28
77118;BME280;66072;50.238;19.228;2023-05-20T11:38:58;99252.91;;;29.88;38.00
77118;BME280;66072;50.238;19.228;2023-05-20T11:41:27;99248.86;;;30.57;36.26
77118;BME280;66072;50.238;19.228;2023-05-20T11:43:59;99236.02;;;30.22;36.32
77118;BME280;66072;50.238;19.228;2023-05-20T11:46:27;99232.76;;;31.05;35.84
77118;BME280;66072;50.238;19.228;2023-05-20T11:48:56;99232.71;;;31.44;34.90
77118;BME280;66072;50.238;19.228;2023-05-20T11:51:28;99223.95;;;32.68;33.39
77118;BME280;66072;50.238;19.228;2023-05-20T11:54:03;99219.77;;;33.23;32.78
77118;BME280;66072;50.238;19.228;2023-05-20T11:56:38;99223.48;;;32.64;33.13
77118;BME280;66072;50.238;19.228;2023-05-20T11:59:08;99224.82;;;32.42;32.72
77118;BME280;66072;50.238;19.228;2023-05-20T12:01:38;99224.25;;;33.28;32.01
77118;BME280;66072;50.238;19.228;2023-05-20T12:04:07;99219.16;;;34.53;29.68
77118;BME280;66072;50.238;19.228;2023-05-20T12:06:35;99217.20;;;35.80;27.83
77118;BME280;66072;50.238;19.228;2023-05-20T12:09:04;99207.84;;;36.77;27.30
77118;BME280;66072;50.238;19.228;2023-05-20T12:11:36;99208.77;;;37.61;26.63
77118;BME280;66072;50.238;19.228;2023-05-20T12:14:04;99202.73;;;37.61;26.49
77118;BME280;66072;50.238;19.228;2023-05-20T12:16:33;99201.31;;;38.60;25.38
77118;BME280;66072;50.238;19.228;2023-05-20T12:19:01;99200.05;;;39.27;24.62
77118;BME280;66072;50.238;19.228;2023-05-20T12:21:29;99198.33;;;39.00;23.99
77118;BME280;66072;50.238;19.228;2023-05-20T12:24:00;99196.86;;;39.68;22.86
77118;BME280;66072;50.238;19.228;2023-05-20T12:26:31;99188.30;;;40.52;22.69
77118;BME280;66072;50.238;19.228;2023-05-20T12:28:58;99182.19;;;41.31;21.60
77118;BME280;66072;50.238;19.228;2023-05-20T12:31:26;99176.06;;;41.90;21.31
77118;BME280;66072;50.238;19.228;2023-05-20T12:33:54;99171.08;;;42.40;19.66
77118;BME280;66072;50.238;19.228;2023-05-20T12:36:22;99164.41;;;42.48;20.16
77118;BME280;66072;50.238;19.228;2023-05-20T12:38:49;99169.52;;;42.75;20.18
77118;BME280;66072;50.238;19.228;2023-05-20T12:41:18;99173.77;;;43.27;19.68
77118;BME280;66072;50.238;19.228;2023-05-20T12:43:46;99166.62;;;43.56;18.72
77118;BME280;66072;50.238;19.228;2023-05-20T12:46:13;99158.19;;;43.88;19.18
77118;BME280;66072;50.238;19.228;2023-05-20T12:48:41;99156.00;;;44.39;18.83
77118;BME280;66072;50.238;19.228;2023-05-20T12:51:09;99152.28;;;44.89;18.73
77118;BME280;66072;50.238;19.228;2023-05-20T12:53:36;99153.48;;;45.52;17.82
77118;BME280;66072;50.238;19.228;2023-05-20T12:56:04;99154.53;;;45.77;16.99
77118;BME280;66072;50.238;19.228;2023-05-20T12:58:34;99153.29;;;45.93;17.22
77118;BME280;66072;50.238;19.228;2023-05-20T13:01:02;99150.64;;;46.21;16.22
77118;BME280;66072;50.238;19.228;2023-05-20T13:03:30;99145.36;;;45.56;15.42